SWA561 DNMM-DNIM
Flight info
| Callsign | SWA561 |
|---|---|
| Flight time | 0h 53m |
| Altitude | 31000 |
| Route | BOTBO1S BOTBO UR984 ARAGU UQ589 AGVAV DCT XULOX DCT |
| Aircraft | B738/M-SDE2E3FGHIRWXY/LB1 |
Departure
| Time | 2026-05-08 15:03 |
|---|---|
| Airport | Murtala Muhammed International Airport (DNMM) |
Arrival
| Time | 2026-05-08 15:56 |
|---|---|
| Airport | Sam Mbakwe International Cargo Airport (DNIM) |
| Time | Latitude | Longitude | Altitude | Speed | Heading |
|---|---|---|---|---|---|
| 2026-05-08 14:53 | 6.59109 | 3.33098 | 132 ft | 0 kts | 336° |
| 2026-05-08 14:57 | 6.59126 | 3.33090 | 133 ft | 9 kts | 336° |
| 2026-05-08 14:57 | 6.59183 | 3.33066 | 134 ft | 9 kts | 337° |
| 2026-05-08 14:58 | 6.59239 | 3.33048 | 135 ft | 8 kts | 357° |
| 2026-05-08 14:58 | 6.59297 | 3.33042 | 136 ft | 8 kts | 353° |
| 2026-05-08 14:58 | 6.59353 | 3.33039 | 137 ft | 8 kts | 359° |
| 2026-05-08 14:58 | 6.59408 | 3.33039 | 138 ft | 8 kts | 359° |
| 2026-05-08 14:59 | 6.59460 | 3.33039 | 139 ft | 7 kts | 359° |
| 2026-05-08 14:59 | 6.59561 | 3.33037 | 141 ft | 7 kts | 359° |
| 2026-05-08 14:59 | 6.59609 | 3.33037 | 142 ft | 7 kts | 359° |
| 2026-05-08 15:00 | 6.59650 | 3.33025 | 143 ft | 4 kts | 312° |
| 2026-05-08 15:00 | 6.59660 | 3.32996 | 143 ft | 5 kts | 276° |
| 2026-05-08 15:00 | 6.59660 | 3.32964 | 143 ft | 5 kts | 270° |
| 2026-05-08 15:00 | 6.59661 | 3.32932 | 144 ft | 5 kts | 270° |
| 2026-05-08 15:01 | 6.59654 | 3.32902 | 144 ft | 4 kts | 225° |
| 2026-05-08 15:01 | 6.59630 | 3.32895 | 143 ft | 0 kts | 181° |
| 2026-05-08 15:02 | 6.59546 | 3.32893 | 141 ft | 43 kts | 180° |
| 2026-05-08 15:02 | 6.58989 | 3.32900 | 126 ft | 115 kts | 179° |
| 2026-05-08 15:02 | 6.57978 | 3.32915 | 112 ft | 174 kts | 177° |
| 2026-05-08 15:03 | 6.56722 | 3.32967 | 660 ft | 184 kts | 177° |
| 2026-05-08 15:03 | 6.55418 | 3.33028 | 1457 ft | 186 kts | 179° |
| 2026-05-08 15:03 | 6.54159 | 3.33189 | 2413 ft | 182 kts | 162° |
| 2026-05-08 15:03 | 6.53014 | 3.33813 | 2997 ft | 200 kts | 141° |
| 2026-05-08 15:04 | 6.52067 | 3.34946 | 3234 ft | 227 kts | 120° |
| 2026-05-08 15:04 | 6.51645 | 3.36590 | 3236 ft | 267 kts | 92° |
| 2026-05-08 15:04 | 6.52006 | 3.38556 | 3356 ft | 299 kts | 68° |
| 2026-05-08 15:04 | 6.52947 | 3.40324 | 4810 ft | 272 kts | 63° |
| 2026-05-08 15:05 | 6.53416 | 3.42008 | 6487 ft | 229 kts | 91° |
| 2026-05-08 15:05 | 6.53168 | 3.43473 | 7862 ft | 206 kts | 104° |
| 2026-05-08 15:05 | 6.52712 | 3.44871 | 8378 ft | 220 kts | 107° |
| 2026-05-08 15:05 | 6.52169 | 3.46406 | 8581 ft | 245 kts | 107° |
| 2026-05-08 15:06 | 6.51571 | 3.48090 | 8918 ft | 263 kts | 107° |
| 2026-05-08 15:06 | 6.50966 | 3.49809 | 9693 ft | 264 kts | 106° |
| 2026-05-08 15:06 | 6.50355 | 3.51565 | 10315 ft | 271 kts | 106° |
| 2026-05-08 15:06 | 6.49718 | 3.53431 | 10602 ft | 289 kts | 106° |
| 2026-05-08 15:07 | 6.49061 | 3.55366 | 11148 ft | 295 kts | 106° |
| 2026-05-08 15:07 | 6.48396 | 3.57335 | 11790 ft | 299 kts | 106° |
| 2026-05-08 15:07 | 6.47725 | 3.59333 | 12443 ft | 303 kts | 106° |
| 2026-05-08 15:07 | 6.47048 | 3.61357 | 13091 ft | 308 kts | 107° |
| 2026-05-08 15:08 | 6.46362 | 3.63413 | 13728 ft | 312 kts | 107° |
| 2026-05-08 15:08 | 6.45902 | 3.64791 | 14101 ft | 315 kts | 107° |
| 2026-05-08 15:08 | 6.44974 | 3.67581 | 14836 ft | 320 kts | 107° |
| 2026-05-08 15:08 | 6.44262 | 3.69721 | 15393 ft | 325 kts | 107° |
| 2026-05-08 15:09 | 6.43542 | 3.71887 | 15954 ft | 329 kts | 107° |
| 2026-05-08 15:09 | 6.42811 | 3.74086 | 16486 ft | 334 kts | 107° |
| 2026-05-08 15:09 | 6.42072 | 3.76309 | 17039 ft | 338 kts | 107° |
| 2026-05-08 15:09 | 6.41320 | 3.78573 | 17557 ft | 343 kts | 107° |
| 2026-05-08 15:10 | 6.40558 | 3.80865 | 18079 ft | 347 kts | 107° |
| 2026-05-08 15:10 | 6.39788 | 3.83183 | 18543 ft | 351 kts | 107° |
| 2026-05-08 15:10 | 6.39011 | 3.85519 | 19046 ft | 353 kts | 107° |
| 2026-05-08 15:10 | 6.38227 | 3.87876 | 19529 ft | 356 kts | 107° |
| 2026-05-08 15:11 | 6.37439 | 3.90244 | 20016 ft | 358 kts | 107° |
| 2026-05-08 15:11 | 6.36646 | 3.92627 | 20476 ft | 362 kts | 107° |
| 2026-05-08 15:11 | 6.35853 | 3.95011 | 20935 ft | 364 kts | 107° |
| 2026-05-08 15:11 | 6.35047 | 3.97435 | 21402 ft | 367 kts | 107° |
| 2026-05-08 15:12 | 6.34232 | 3.99883 | 21860 ft | 370 kts | 107° |
| 2026-05-08 15:12 | 6.33413 | 4.02343 | 22318 ft | 372 kts | 107° |
| 2026-05-08 15:12 | 6.32588 | 4.04821 | 22753 ft | 375 kts | 108° |
| 2026-05-08 15:12 | 6.31756 | 4.07320 | 23202 ft | 378 kts | 108° |
| 2026-05-08 15:13 | 6.30919 | 4.09834 | 23594 ft | 381 kts | 108° |
| 2026-05-08 15:13 | 6.30075 | 4.12367 | 23962 ft | 383 kts | 108° |
| 2026-05-08 15:13 | 6.29229 | 4.14908 | 24358 ft | 384 kts | 108° |
| 2026-05-08 15:13 | 6.28380 | 4.17457 | 24767 ft | 384 kts | 108° |
| 2026-05-08 15:14 | 6.27529 | 4.20009 | 25165 ft | 386 kts | 107° |
| 2026-05-08 15:14 | 6.26675 | 4.22572 | 25542 ft | 387 kts | 107° |
| 2026-05-08 15:14 | 6.25818 | 4.25146 | 25871 ft | 390 kts | 107° |
| 2026-05-08 15:14 | 6.24954 | 4.27737 | 26244 ft | 391 kts | 107° |
| 2026-05-08 15:15 | 6.24087 | 4.30336 | 26636 ft | 392 kts | 107° |
| 2026-05-08 15:15 | 6.23097 | 4.32900 | 26996 ft | 394 kts | 112° |
| 2026-05-08 15:15 | 6.21954 | 4.35374 | 27345 ft | 396 kts | 114° |
| 2026-05-08 15:15 | 6.20731 | 4.37863 | 27696 ft | 398 kts | 115° |
| 2026-05-08 15:16 | 6.19491 | 4.40359 | 28031 ft | 400 kts | 114° |
| 2026-05-08 15:16 | 6.18253 | 4.42869 | 28349 ft | 402 kts | 114° |
| 2026-05-08 15:16 | 6.17022 | 4.45394 | 28677 ft | 403 kts | 114° |
| 2026-05-08 15:16 | 6.15796 | 4.47936 | 29014 ft | 404 kts | 114° |
| 2026-05-08 15:17 | 6.14572 | 4.50489 | 29313 ft | 406 kts | 113° |
| 2026-05-08 15:17 | 6.13345 | 4.53061 | 29604 ft | 408 kts | 113° |
| 2026-05-08 15:17 | 6.12116 | 4.55639 | 29887 ft | 411 kts | 113° |
| 2026-05-08 15:17 | 6.10875 | 4.58245 | 30002 ft | 416 kts | 113° |
| 2026-05-08 15:18 | 6.08342 | 4.63565 | 30211 ft | 426 kts | 113° |
| 2026-05-08 15:18 | 6.07056 | 4.66263 | 30419 ft | 428 kts | 113° |
| 2026-05-08 15:18 | 6.05782 | 4.68935 | 30721 ft | 427 kts | 113° |
| 2026-05-08 15:19 | 6.04494 | 4.71634 | 30838 ft | 430 kts | 113° |
| 2026-05-08 15:19 | 6.03203 | 4.74342 | 30845 ft | 429 kts | 113° |
| 2026-05-08 15:19 | 6.00629 | 4.79735 | 30848 ft | 427 kts | 113° |
| 2026-05-08 15:20 | 5.98068 | 4.85103 | 30853 ft | 426 kts | 113° |
| 2026-05-08 15:20 | 5.95509 | 4.90466 | 30859 ft | 426 kts | 113° |
| 2026-05-08 15:21 | 5.92944 | 4.95841 | 30850 ft | 426 kts | 113° |
| 2026-05-08 15:21 | 5.90393 | 5.01184 | 30850 ft | 427 kts | 113° |
| 2026-05-08 15:22 | 5.87824 | 5.06552 | 30853 ft | 427 kts | 113° |
| 2026-05-08 15:22 | 5.85244 | 5.11933 | 30856 ft | 427 kts | 113° |
| 2026-05-08 15:23 | 5.82663 | 5.17320 | 30850 ft | 428 kts | 113° |
| 2026-05-08 15:23 | 5.80083 | 5.22702 | 30850 ft | 428 kts | 113° |
| 2026-05-08 15:24 | 5.77499 | 5.28095 | 30854 ft | 428 kts | 113° |
| 2026-05-08 15:24 | 5.74925 | 5.33461 | 30579 ft | 420 kts | 113° |
| 2026-05-08 15:25 | 5.73678 | 5.36057 | 30240 ft | 406 kts | 113° |
| 2026-05-08 15:25 | 5.72468 | 5.38573 | 29920 ft | 396 kts | 113° |
| 2026-05-08 15:25 | 5.71281 | 5.41048 | 29551 ft | 391 kts | 113° |
| 2026-05-08 15:25 | 5.70105 | 5.43500 | 29193 ft | 389 kts | 113° |
| 2026-05-08 15:26 | 5.68946 | 5.45919 | 28832 ft | 387 kts | 113° |
| 2026-05-08 15:26 | 5.67780 | 5.48352 | 28479 ft | 386 kts | 113° |
| 2026-05-08 15:26 | 5.66618 | 5.50774 | 28121 ft | 385 kts | 113° |
| 2026-05-08 15:26 | 5.65457 | 5.53195 | 27776 ft | 384 kts | 113° |
| 2026-05-08 15:27 | 5.64300 | 5.55607 | 27440 ft | 384 kts | 113° |
| 2026-05-08 15:27 | 5.63142 | 5.58019 | 27091 ft | 383 kts | 113° |
| 2026-05-08 15:27 | 5.61983 | 5.60433 | 26767 ft | 382 kts | 113° |
| 2026-05-08 15:27 | 5.60831 | 5.62833 | 26437 ft | 382 kts | 114° |
| 2026-05-08 15:28 | 5.59680 | 5.65230 | 26095 ft | 381 kts | 114° |
| 2026-05-08 15:28 | 5.58531 | 5.67621 | 25778 ft | 380 kts | 114° |
| 2026-05-08 15:28 | 5.57384 | 5.70009 | 25458 ft | 378 kts | 114° |
| 2026-05-08 15:28 | 5.56246 | 5.72378 | 25135 ft | 376 kts | 114° |
| 2026-05-08 15:29 | 5.55125 | 5.74709 | 24825 ft | 374 kts | 114° |
| 2026-05-08 15:29 | 5.53983 | 5.77086 | 24509 ft | 372 kts | 114° |
| 2026-05-08 15:29 | 5.52873 | 5.79396 | 24200 ft | 371 kts | 114° |
| 2026-05-08 15:29 | 5.51758 | 5.81716 | 23899 ft | 369 kts | 114° |
| 2026-05-08 15:30 | 5.50646 | 5.84029 | 23596 ft | 367 kts | 114° |
| 2026-05-08 15:30 | 5.49538 | 5.86333 | 23269 ft | 365 kts | 114° |
| 2026-05-08 15:30 | 5.48432 | 5.88633 | 22910 ft | 364 kts | 114° |
| 2026-05-08 15:30 | 5.47337 | 5.90910 | 22555 ft | 362 kts | 114° |
| 2026-05-08 15:31 | 5.46244 | 5.93184 | 22191 ft | 360 kts | 114° |
| 2026-05-08 15:31 | 5.45155 | 5.95447 | 21862 ft | 359 kts | 114° |
| 2026-05-08 15:31 | 5.44070 | 5.97703 | 21514 ft | 357 kts | 114° |
| 2026-05-08 15:31 | 5.43004 | 5.99920 | 21172 ft | 355 kts | 114° |
| 2026-05-08 15:32 | 5.41932 | 6.02148 | 20842 ft | 354 kts | 114° |
| 2026-05-08 15:32 | 5.40865 | 6.04364 | 20508 ft | 352 kts | 114° |
| 2026-05-08 15:32 | 5.39803 | 6.06572 | 20171 ft | 350 kts | 114° |
| 2026-05-08 15:32 | 5.38746 | 6.08769 | 19857 ft | 348 kts | 114° |
| 2026-05-08 15:33 | 5.37698 | 6.10947 | 19537 ft | 346 kts | 114° |
| 2026-05-08 15:33 | 5.36657 | 6.13109 | 19275 ft | 342 kts | 114° |
| 2026-05-08 15:33 | 5.35672 | 6.15273 | 18991 ft | 339 kts | 106° |
| 2026-05-08 15:33 | 5.35353 | 6.17588 | 18714 ft | 335 kts | 86° |
| 2026-05-08 15:34 | 5.35777 | 6.19869 | 18456 ft | 333 kts | 69° |
| 2026-05-08 15:34 | 5.36829 | 6.21945 | 18213 ft | 332 kts | 60° |
| 2026-05-08 15:34 | 5.38043 | 6.23922 | 17914 ft | 332 kts | 59° |
| 2026-05-08 15:34 | 5.38866 | 6.25219 | 17713 ft | 332 kts | 58° |
| 2026-05-08 15:35 | 5.40507 | 6.27807 | 17315 ft | 332 kts | 59° |
| 2026-05-08 15:35 | 5.41737 | 6.29771 | 17019 ft | 331 kts | 59° |
| 2026-05-08 15:35 | 5.42950 | 6.31725 | 16745 ft | 330 kts | 59° |
| 2026-05-08 15:35 | 5.44158 | 6.33683 | 16435 ft | 328 kts | 59° |
| 2026-05-08 15:36 | 5.45342 | 6.35608 | 16125 ft | 321 kts | 59° |
| 2026-05-08 15:36 | 5.46111 | 6.36861 | 15929 ft | 317 kts | 59° |
| 2026-05-08 15:36 | 5.47651 | 6.39369 | 15550 ft | 314 kts | 59° |
| 2026-05-08 15:36 | 5.48796 | 6.41234 | 15305 ft | 314 kts | 60° |
| 2026-05-08 15:37 | 5.49482 | 6.42515 | 15172 ft | 315 kts | 66° |
| 2026-05-08 15:37 | 5.50226 | 6.44589 | 14970 ft | 317 kts | 76° |
| 2026-05-08 15:37 | 5.50635 | 6.46753 | 14766 ft | 314 kts | 80° |
| 2026-05-08 15:37 | 5.50973 | 6.48910 | 14560 ft | 312 kts | 81° |
| 2026-05-08 15:38 | 5.51299 | 6.51056 | 14362 ft | 311 kts | 81° |
| 2026-05-08 15:38 | 5.51625 | 6.53197 | 14145 ft | 308 kts | 81° |
| 2026-05-08 15:38 | 5.51951 | 6.55314 | 13864 ft | 303 kts | 81° |
| 2026-05-08 15:38 | 5.52272 | 6.57375 | 13546 ft | 294 kts | 81° |
| 2026-05-08 15:39 | 5.52587 | 6.59384 | 13164 ft | 288 kts | 80° |
| 2026-05-08 15:39 | 5.52897 | 6.61348 | 12787 ft | 282 kts | 80° |
| 2026-05-08 15:39 | 5.53202 | 6.63272 | 12416 ft | 277 kts | 80° |
| 2026-05-08 15:39 | 5.53498 | 6.65143 | 12046 ft | 272 kts | 80° |
| 2026-05-08 15:40 | 5.53793 | 6.67002 | 11674 ft | 267 kts | 80° |
| 2026-05-08 15:40 | 5.54084 | 6.68833 | 11310 ft | 263 kts | 80° |
| 2026-05-08 15:40 | 5.54370 | 6.70631 | 10955 ft | 259 kts | 80° |
| 2026-05-08 15:40 | 5.54653 | 6.72413 | 10619 ft | 257 kts | 79° |
| 2026-05-08 15:41 | 5.54935 | 6.74185 | 10279 ft | 256 kts | 79° |
| 2026-05-08 15:41 | 5.55214 | 6.75942 | 9925 ft | 254 kts | 79° |
| 2026-05-08 15:41 | 5.55490 | 6.77678 | 9575 ft | 252 kts | 79° |
| 2026-05-08 15:41 | 5.55766 | 6.79412 | 9188 ft | 250 kts | 79° |
| 2026-05-08 15:42 | 5.56039 | 6.81132 | 8817 ft | 249 kts | 80° |
| 2026-05-08 15:42 | 5.56309 | 6.82830 | 8526 ft | 249 kts | 80° |
| 2026-05-08 15:42 | 5.56584 | 6.84558 | 8294 ft | 253 kts | 80° |
| 2026-05-08 15:42 | 5.56865 | 6.86326 | 8063 ft | 259 kts | 80° |
| 2026-05-08 15:43 | 5.57150 | 6.88122 | 7825 ft | 263 kts | 80° |
| 2026-05-08 15:43 | 5.57439 | 6.89943 | 7585 ft | 263 kts | 81° |
| 2026-05-08 15:43 | 5.57725 | 6.91750 | 7350 ft | 261 kts | 81° |
| 2026-05-08 15:43 | 5.58010 | 6.93546 | 7100 ft | 259 kts | 81° |
| 2026-05-08 15:44 | 5.58293 | 6.95330 | 6872 ft | 258 kts | 81° |
| 2026-05-08 15:44 | 5.58575 | 6.97111 | 6652 ft | 259 kts | 81° |
| 2026-05-08 15:44 | 5.58858 | 6.98897 | 6408 ft | 259 kts | 81° |
| 2026-05-08 15:44 | 5.59142 | 7.00687 | 6185 ft | 259 kts | 81° |
| 2026-05-08 15:45 | 5.59426 | 7.02475 | 5944 ft | 260 kts | 81° |
| 2026-05-08 15:45 | 5.59710 | 7.04269 | 5695 ft | 260 kts | 82° |
| 2026-05-08 15:45 | 5.59642 | 7.06067 | 5425 ft | 260 kts | 107° |
| 2026-05-08 15:45 | 5.58748 | 7.07628 | 5200 ft | 260 kts | 134° |
| 2026-05-08 15:46 | 5.57273 | 7.08659 | 4963 ft | 261 kts | 158° |
| 2026-05-08 15:46 | 5.55528 | 7.09160 | 4754 ft | 261 kts | 166° |
| 2026-05-08 15:46 | 5.53752 | 7.09563 | 4520 ft | 261 kts | 167° |
| 2026-05-08 15:46 | 5.52009 | 7.09945 | 4454 ft | 260 kts | 167° |
| 2026-05-08 15:47 | 5.50230 | 7.10336 | 4433 ft | 261 kts | 167° |
| 2026-05-08 15:47 | 5.48462 | 7.10729 | 4421 ft | 260 kts | 167° |
| 2026-05-08 15:47 | 5.46704 | 7.11124 | 4425 ft | 257 kts | 167° |
| 2026-05-08 15:47 | 5.44976 | 7.11515 | 4323 ft | 253 kts | 167° |
| 2026-05-08 15:48 | 5.41545 | 7.12294 | 3889 ft | 251 kts | 167° |
| 2026-05-08 15:48 | 5.39848 | 7.12681 | 3675 ft | 248 kts | 167° |
| 2026-05-08 15:48 | 5.38179 | 7.13063 | 3445 ft | 243 kts | 167° |
| 2026-05-08 15:49 | 5.36545 | 7.13440 | 3190 ft | 237 kts | 168° |
| 2026-05-08 15:49 | 5.34961 | 7.13799 | 2950 ft | 230 kts | 168° |
| 2026-05-08 15:49 | 5.33423 | 7.14150 | 2732 ft | 225 kts | 167° |
| 2026-05-08 15:49 | 5.31899 | 7.14499 | 2568 ft | 224 kts | 168° |
| 2026-05-08 15:50 | 5.30401 | 7.14841 | 2414 ft | 222 kts | 168° |
| 2026-05-08 15:50 | 5.28899 | 7.15184 | 2387 ft | 221 kts | 167° |
| 2026-05-08 15:50 | 5.27405 | 7.15525 | 2412 ft | 219 kts | 168° |
| 2026-05-08 15:50 | 5.25901 | 7.15869 | 2381 ft | 224 kts | 167° |
| 2026-05-08 15:51 | 5.24382 | 7.16216 | 2386 ft | 223 kts | 168° |
| 2026-05-08 15:51 | 5.22986 | 7.16860 | 2381 ft | 223 kts | 140° |
| 2026-05-08 15:51 | 5.22140 | 7.18121 | 2386 ft | 215 kts | 110° |
| 2026-05-08 15:51 | 5.21981 | 7.19578 | 2380 ft | 208 kts | 85° |
| 2026-05-08 15:52 | 5.22246 | 7.20994 | 2398 ft | 206 kts | 79° |
| 2026-05-08 15:52 | 5.22579 | 7.22423 | 2443 ft | 216 kts | 78° |
| 2026-05-08 15:52 | 5.23235 | 7.23794 | 2406 ft | 224 kts | 48° |
| 2026-05-08 15:52 | 5.24567 | 7.24575 | 2348 ft | 224 kts | 8° |
| 2026-05-08 15:53 | 5.26064 | 7.24467 | 2397 ft | 214 kts | 347° |
| 2026-05-08 15:53 | 5.27497 | 7.24114 | 2377 ft | 213 kts | 345° |
| 2026-05-08 15:53 | 5.28889 | 7.23773 | 2355 ft | 198 kts | 346° |
| 2026-05-08 15:53 | 5.30176 | 7.23471 | 2361 ft | 181 kts | 345° |
| 2026-05-08 15:54 | 5.31353 | 7.23199 | 2361 ft | 170 kts | 346° |
| 2026-05-08 15:54 | 5.32544 | 7.22926 | 2186 ft | 181 kts | 346° |
| 2026-05-08 15:54 | 5.33753 | 7.22651 | 1970 ft | 175 kts | 345° |
| 2026-05-08 15:54 | 5.34922 | 7.22384 | 1730 ft | 169 kts | 346° |
| 2026-05-08 15:55 | 5.36060 | 7.22125 | 1516 ft | 167 kts | 346° |
| 2026-05-08 15:55 | 5.38346 | 7.21604 | 1138 ft | 179 kts | 345° |
| 2026-05-08 15:55 | 5.39587 | 7.21320 | 817 ft | 183 kts | 345° |
| 2026-05-08 15:56 | 5.40799 | 7.21044 | 573 ft | 175 kts | 345° |
| 2026-05-08 15:56 | 5.41930 | 7.20786 | 414 ft | 159 kts | 347° |
| 2026-05-08 15:56 | 5.42911 | 7.20551 | 381 ft | 121 kts | 347° |
| 2026-05-08 15:56 | 5.43246 | 7.20472 | 382 ft | 22 kts | 347° |
| 2026-05-08 15:57 | 5.43395 | 7.20437 | 383 ft | 22 kts | 352° |
| 2026-05-08 15:57 | 5.43541 | 7.20412 | 382 ft | 6 kts | 278° |
| 2026-05-08 15:57 | 5.43452 | 7.20423 | 383 ft | 29 kts | 168° |
| 2026-05-08 15:57 | 5.43262 | 7.20468 | 382 ft | 27 kts | 166° |
| 2026-05-08 15:58 | 5.43084 | 7.20511 | 382 ft | 25 kts | 166° |
| 2026-05-08 15:58 | 5.42972 | 7.20480 | 381 ft | 17 kts | 240° |
| 2026-05-08 15:58 | 5.42927 | 7.20373 | 380 ft | 17 kts | 218° |
| 2026-05-08 15:58 | 5.42817 | 7.20370 | 380 ft | 16 kts | 167° |
| 2026-05-08 15:59 | 5.42711 | 7.20389 | 380 ft | 15 kts | 188° |
| 2026-05-08 15:59 | 5.42652 | 7.20336 | 380 ft | 10 kts | 264° |
| 2026-05-08 15:59 | 5.42652 | 7.20328 | 380 ft | 0 kts | 264° |